Time;durP1;ratioP1;P1;durP2;ratioP2;P2;SDS_P1;SDS_P2;PMS_P1;PMS_P2;Temp;Humidity;BMP_temperature;BMP_pressure;BME280_temperature;BME280_humidity;BME280_pressure;Samples;Min_cycle;Max_cycle;Signal;HPM_P1;HPM_P2
2023/05/07 00:00:21;;;;;;;4.27;3.73;;;15.50;99.90;;;;;;5012182;28;20550;-71
2023/05/07 00:02:47;;;;;;;4.37;3.47;;;15.50;99.90;;;;;;5012271;28;20180;-71
2023/05/07 00:05:13;;;;;;;3.37;3.07;;;15.50;99.90;;;;;;5012519;28;20751;-72
2023/05/07 00:07:39;;;;;;;4.73;2.90;;;15.50;99.90;;;;;;5012112;28;20223;-71
2023/05/07 00:10:06;;;;;;;3.37;3.03;;;15.50;99.90;;;;;;5012470;28;20493;-71
2023/05/07 00:12:33;;;;;;;5.83;3.70;;;15.50;99.90;;;;;;5012318;28;20195;-71
2023/05/07 00:15:00;;;;;;;5.23;4.27;;;15.50;99.90;;;;;;5012361;28;20407;-72
2023/05/07 00:17:26;;;;;;;5.43;3.67;;;15.50;99.90;;;;;;5012058;28;20580;-71
2023/05/07 00:19:51;;;;;;;3.70;3.10;;;15.40;99.90;;;;;;5012378;28;20490;-71
2023/05/07 00:22:17;;;;;;;6.70;3.70;;;15.30;99.90;;;;;;5012251;28;20180;-72
2023/05/07 00:24:42;;;;;;;6.50;4.03;;;15.30;99.90;;;;;;5012050;28;20287;-72
2023/05/07 00:27:08;;;;;;;3.97;3.50;;;15.20;99.90;;;;;;5027146;28;20188;-72
2023/05/07 00:29:34;;;;;;;4.40;4.00;;;15.20;99.90;;;;;;5012315;28;20537;-71
2023/05/07 00:31:59;;;;;;;6.43;3.13;;;15.20;99.90;;;;;;5012263;28;20660;-71
2023/05/07 00:34:25;;;;;;;4.00;3.60;;;15.30;99.90;;;;;;5027198;28;20176;-71
2023/05/07 00:36:50;;;;;;;4.40;3.40;;;15.30;99.90;;;;;;5011907;28;20612;-72
2023/05/07 00:39:16;;;;;;;5.10;3.80;;;15.30;99.90;;;;;;5010100;28;20653;-72
2023/05/07 00:41:41;;;;;;;3.47;3.07;;;15.30;99.90;;;;;;5012185;28;20222;-71
2023/05/07 00:44:07;;;;;;;4.30;3.40;;;15.30;99.90;;;;;;5011964;28;20200;-72
2023/05/07 00:46:32;;;;;;;4.90;3.57;;;15.30;99.90;;;;;;5011964;28;20246;-72
2023/05/07 00:48:59;;;;;;;3.83;3.40;;;15.30;99.90;;;;;;5011767;28;20580;-71
2023/05/07 00:51:27;;;;;;;5.03;3.50;;;15.30;99.90;;;;;;5012107;28;20682;-72
2023/05/07 00:53:53;;;;;;;4.23;3.83;;;15.30;99.90;;;;;;5011824;28;20410;-71
2023/05/07 00:56:23;;;;;;;3.13;2.80;;;15.20;99.90;;;;;;5011921;28;20472;-72
2023/05/07 00:58:49;;;;;;;4.40;3.60;;;15.20;99.90;;;;;;5011655;28;20636;-71
2023/05/07 01:01:17;;;;;;;3.80;3.30;;;15.20;99.90;;;;;;5011955;28;20415;-72
2023/05/07 01:03:43;;;;;;;3.17;2.97;;;15.20;99.90;;;;;;5011794;28;20410;-71
2023/05/07 01:06:12;;;;;;;3.50;3.20;;;15.20;99.90;;;;;;5011878;28;20431;-72
2023/05/07 01:08:41;;;;;;;3.73;3.43;;;15.20;99.90;;;;;;5011502;28;20164;-72
2023/05/07 01:11:07;;;;;;;5.53;3.40;;;15.20;99.90;;;;;;5011882;28;20687;-71
2023/05/07 01:13:34;;;;;;;4.20;3.20;;;15.20;99.90;;;;;;5014684;28;20498;-71
2023/05/07 01:16:00;;;;;;;4.27;3.87;;;15.20;99.90;;;;;;5030805;28;20493;-71
2023/05/07 01:18:26;;;;;;;5.03;4.20;;;15.10;99.90;;;;;;5030419;28;21034;-72
2023/05/07 01:20:52;;;;;;;4.83;3.43;;;15.10;99.90;;;;;;5015555;28;20169;-72
2023/05/07 01:23:18;;;;;;;4.50;3.93;;;15.00;99.90;;;;;;5015411;28;20415;-72
2023/05/07 01:25:51;;;;;;;3.80;2.93;;;15.00;99.90;;;;;;5015276;28;20210;-72
2023/05/07 01:28:17;;;;;;;4.50;4.10;;;15.00;99.90;;;;;;5015188;28;20443;-71
2023/05/07 01:30:51;;;;;;;4.77;4.37;;;14.90;99.90;;;;;;5015310;28;20411;-72
2023/05/07 01:33:21;;;;;;;6.00;4.87;;;14.80;99.90;;;;;;5015243;28;20229;-71
2023/05/07 01:35:50;;;;;;;6.03;4.33;;;14.70;99.90;;;;;;5015185;28;20442;-72
2023/05/07 01:38:16;;;;;;;4.57;3.50;;;14.70;99.90;;;;;;5014862;28;20905;-71
2023/05/07 01:40:42;;;;;;;4.07;3.50;;;14.70;99.90;;;;;;5015134;28;20502;-72
2023/05/07 01:43:09;;;;;;;4.40;2.90;;;14.70;99.90;;;;;;5015170;28;20407;-72
2023/05/07 01:45:35;;;;;;;3.60;3.30;;;14.70;99.90;;;;;;5014842;28;20461;-71
2023/05/07 01:48:02;;;;;;;4.40;4.00;;;14.70;99.90;;;;;;5014645;28;20485;-71
2023/05/07 01:50:29;;;;;;;4.23;3.73;;;14.80;99.90;;;;;;5015012;28;20403;-71
2023/05/07 01:52:55;;;;;;;5.20;4.37;;;14.80;99.90;;;;;;5014945;28;20430;-72
2023/05/07 01:55:21;;;;;;;4.70;3.43;;;14.80;99.90;;;;;;5014533;28;20415;-71
2023/05/07 01:57:47;;;;;;;4.47;3.73;;;14.80;99.90;;;;;;5014576;28;20896;-72
2023/05/07 02:00:13;;;;;;;3.20;3.00;;;14.80;99.90;;;;;;5014795;28;20449;-72
2023/05/07 02:02:38;;;;;;;4.10;3.50;;;14.80;99.90;;;;;;5014812;28;20172;-71
2023/05/07 02:05:04;;;;;;;3.43;3.13;;;14.80;99.90;;;;;;5014730;28;20204;-72
2023/05/07 02:07:30;;;;;;;3.40;3.10;;;14.80;99.90;;;;;;5014369;28;20194;-72
2023/05/07 02:09:55;;;;;;;3.47;3.17;;;14.80;99.90;;;;;;5014636;28;20908;-71
2023/05/07 02:12:22;;;;;;;3.50;3.20;;;14.70;99.90;;;;;;5014462;28;20247;-71
2023/05/07 02:14:48;;;;;;;3.73;3.33;;;14.70;99.90;;;;;;5014590;28;20226;-72
2023/05/07 02:17:13;;;;;;;3.83;2.97;;;14.60;99.90;;;;;;5014082;28;20800;-72
2023/05/07 02:19:39;;;;;;;5.67;3.30;;;14.60;99.90;;;;;;5014461;28;20172;-72
2023/05/07 02:22:05;;;;;;;3.80;3.03;;;14.50;99.90;;;;;;5014345;28;20183;-71
2023/05/07 02:24:30;;;;;;;2.80;2.60;;;14.40;99.90;;;;;;5028756;28;20278;-71
2023/05/07 02:26:56;;;;;;;6.00;3.03;;;14.40;99.90;;;;;;5013895;28;20238;-72
2023/05/07 02:29:21;;;;;;;4.30;3.90;;;14.30;99.90;;;;;;5014235;28;20515;-71
2023/05/07 02:31:50;;;;;;;3.80;3.07;;;14.30;99.90;;;;;;5014191;28;20651;-71
2023/05/07 02:34:16;;;;;;;4.37;3.50;;;14.30;99.90;;;;;;5014173;28;20169;-71
2023/05/07 02:36:42;;;;;;;4.40;3.57;;;14.30;99.90;;;;;;5013899;28;20431;-71
2023/05/07 02:39:07;;;;;;;2.60;2.40;;;14.30;99.90;;;;;;5013885;28;20403;-72
2023/05/07 02:41:33;;;;;;;3.47;3.17;;;14.20;99.90;;;;;;5014065;28;20676;-71
2023/05/07 02:43:58;;;;;;;4.80;4.00;;;14.30;99.90;;;;;;5013907;28;20275;-71
2023/05/07 02:46:24;;;;;;;3.50;3.20;;;14.30;99.90;;;;;;5013891;28;20192;-72
2023/05/07 02:48:49;;;;;;;3.83;3.43;;;14.30;99.90;;;;;;5013664;28;20175;-71
2023/05/07 02:51:20;;;;;;;3.53;3.23;;;14.30;99.90;;;;;;5013812;28;20168;-71
2023/05/07 02:53:45;;;;;;;3.33;3.03;;;14.40;99.90;;;;;;5013943;28;20168;-71
2023/05/07 02:56:11;;;;;;;3.97;2.77;;;14.40;99.90;;;;;;5013657;28;20506;-71
2023/05/07 02:58:39;;;;;;;6.50;3.27;;;14.40;99.90;;;;;;5013433;28;20239;-72
2023/05/07 03:01:05;;;;;;;5.43;3.73;;;14.40;99.90;;;;;;5013790;28;20172;-72
2023/05/07 03:03:31;;;;;;;3.50;3.20;;;14.40;99.90;;;;;;5013487;28;20404;-72
2023/05/07 03:05:56;;;;;;;3.37;3.07;;;14.40;99.90;;;;;;5013429;28;20470;-71
2023/05/07 03:08:22;;;;;;;4.40;3.53;;;14.30;99.90;;;;;;5013237;28;20164;-72
2023/05/07 03:10:48;;;;;;;4.00;3.70;;;14.30;99.90;;;;;;5013504;28;20180;-72
2023/05/07 03:13:13;;;;;;;3.57;3.23;;;14.20;99.90;;;;;;5013319;28;20717;-73
2023/05/07 03:15:39;;;;;;;4.03;3.63;;;14.20;99.90;;;;;;5013345;28;20303;-72
2023/05/07 03:18:04;;;;;;;4.90;4.40;;;14.20;99.90;;;;;;5013094;28;20199;-72
2023/05/07 03:20:30;;;;;;;6.00;3.20;;;14.20;99.90;;;;;;5013293;28;20203;-71
2023/05/07 03:22:55;;;;;;;4.00;2.97;;;14.10;99.90;;;;;;5028444;28;20179;-71
2023/05/07 03:25:21;;;;;;;4.93;3.80;;;14.10;99.90;;;;;;5013126;28;20740;-70
2023/05/07 03:27:46;;;;;;;3.37;3.07;;;14.00;99.90;;;;;;5012819;28;20164;-72
2023/05/07 03:30:12;;;;;;;4.00;3.60;;;14.00;99.90;;;;;;5013275;28;20263;-72
2023/05/07 03:32:38;;;;;;;24.33;18.40;;;13.90;99.90;;;;;;5013106;28;20275;-71
2023/05/07 03:35:04;;;;;;;13.03;9.37;;;13.80;99.90;;;;;;5012956;28;20175;-71
2023/05/07 03:37:29;;;;;;;6.13;5.40;;;13.80;99.90;;;;;;5012713;28;20533;-72
2023/05/07 03:39:55;;;;;;;5.30;4.13;;;13.80;99.90;;;;;;5028239;28;20469;-71
2023/05/07 03:42:21;;;;;;;4.90;3.73;;;13.80;99.90;;;;;;5012977;28;20179;-72
2023/05/07 03:44:46;;;;;;;3.33;2.90;;;13.80;99.90;;;;;;5012848;28;20196;-72
2023/05/07 03:47:13;;;;;;;4.53;3.87;;;13.70;99.90;;;;;;5012524;28;20607;-72
2023/05/07 03:49:39;;;;;;;6.83;3.90;;;13.80;99.90;;;;;;5012751;28;20165;-72
2023/05/07 03:52:04;;;;;;;4.33;3.57;;;13.80;99.90;;;;;;5012897;28;20407;-72
2023/05/07 03:54:30;;;;;;;3.10;2.80;;;13.80;99.90;;;;;;5012734;28;20490;-72
2023/05/07 03:56:56;;;;;;;3.17;2.87;;;13.80;99.90;;;;;;5012341;28;20203;-72
2023/05/07 03:59:22;;;;;;;3.77;3.47;;;13.80;99.90;;;;;;5012614;28;20407;-71
2023/05/07 04:01:48;;;;;;;4.03;3.63;;;13.80;99.90;;;;;;5012655;28;20540;-72
2023/05/07 04:04:14;;;;;;;5.73;4.43;;;13.90;99.90;;;;;;5012466;28;20184;-71
2023/05/07 04:06:40;;;;;;;4.93;4.20;;;13.90;99.90;;;;;;5012453;28;20422;-71
2023/05/07 04:09:06;;;;;;;8.20;6.37;;;14.00;99.90;;;;;;5012227;28;20434;-71
2023/05/07 04:11:32;;;;;;;7.30;6.10;;;14.00;99.90;;;;;;5012243;28;20183;-71
2023/05/07 04:13:57;;;;;;;5.50;5.00;;;14.10;99.90;;;;;;5012395;28;20399;-72
2023/05/07 04:16:24;;;;;;;4.50;4.10;;;14.20;99.90;;;;;;5012079;28;20216;-72
2023/05/07 04:18:49;;;;;;;4.27;3.87;;;14.20;99.90;;;;;;5011991;28;20407;-72
2023/05/07 04:21:20;;;;;;;3.40;3.10;;;14.30;99.90;;;;;;5027641;28;20539;-71
2023/05/07 04:23:49;;;;;;;3.70;3.37;;;14.40;99.90;;;;;;5012322;28;20164;-71
2023/05/07 04:26:15;;;;;;;3.93;3.53;;;14.50;99.90;;;;;;5011965;28;20777;-71
2023/05/07 04:28:41;;;;;;;3.70;3.40;;;14.50;99.90;;;;;;5011971;28;20449;-71
2023/05/07 04:31:07;;;;;;;5.17;4.03;;;14.60;99.90;;;;;;5012190;28;20442;-72
2023/05/07 04:33:33;;;;;;;4.37;3.97;;;14.70;99.90;;;;;;5011905;28;20407;-71
2023/05/07 04:36:03;;;;;;;5.50;3.37;;;14.70;99.90;;;;;;5012125;28;20427;-71
2023/05/07 04:38:31;;;;;;;3.57;2.93;;;14.80;99.90;;;;;;5011627;28;20534;-72
2023/05/07 04:40:57;;;;;;;4.10;3.70;;;14.80;99.90;;;;;;5011892;28;20940;-73
2023/05/07 04:43:23;;;;;;;5.70;4.33;;;14.90;99.90;;;;;;5012142;28;20411;-72
2023/05/07 04:45:50;;;;;;;5.10;4.13;;;14.80;99.90;;;;;;5011750;28;20542;-73
2023/05/07 04:48:18;;;;;;;4.17;3.77;;;14.80;99.90;;;;;;5014263;28;20176;-71
2023/05/07 04:50:46;;;;;;;4.47;4.07;;;14.80;99.90;;;;;;5014769;28;20453;-72
2023/05/07 04:53:12;;;;;;;4.60;3.60;;;14.90;99.90;;;;;;5015952;28;20411;-72
2023/05/07 04:55:37;;;;;;;4.10;3.80;;;14.90;99.90;;;;;;5015805;28;20903;-72
2023/05/07 04:58:04;;;;;;;4.80;4.33;;;14.90;99.90;;;;;;5015684;28;20676;-72
2023/05/07 05:00:30;;;;;;;5.77;3.83;;;14.90;99.90;;;;;;5015905;28;20263;-72
2023/05/07 05:02:55;;;;;;;3.23;2.93;;;15.00;99.90;;;;;;5015876;28;20520;-71
2023/05/07 05:05:21;;;;;;;4.00;3.60;;;15.00;99.90;;;;;;5015667;28;20211;-71
2023/05/07 05:07:46;;;;;;;7.63;4.03;;;15.10;99.90;;;;;;5015500;28;20547;-72
2023/05/07 05:10:12;;;;;;;4.30;3.90;;;15.10;99.90;;;;;;5015844;28;20564;-72
2023/05/07 05:12:38;;;;;;;4.37;3.37;;;15.20;99.90;;;;;;5015595;28;20191;-72
2023/05/07 05:15:04;;;;;;;5.37;4.87;;;15.40;99.90;;;;;;5015515;28;20176;-72
2023/05/07 05:17:29;;;;;;;5.10;4.30;;;15.50;99.90;;;;;;5015230;28;20564;-72
2023/05/07 05:19:56;;;;;;;4.03;3.40;;;15.50;99.90;;;;;;5015507;28;20419;-72
2023/05/07 05:22:21;;;;;;;3.63;3.30;;;15.60;99.90;;;;;;5015525;28;20667;-72
2023/05/07 05:24:47;;;;;;;5.57;3.97;;;15.60;99.90;;;;;;5015318;28;20454;-72
2023/05/07 05:27:12;;;;;;;3.50;3.07;;;15.50;99.90;;;;;;5015001;28;20230;-72
2023/05/07 05:29:38;;;;;;;3.20;2.90;;;15.50;99.90;;;;;;5015482;28;20172;-72
2023/05/07 05:32:03;;;;;;;2.77;2.37;;;15.60;99.90;;;;;;5015239;28;20755;-72
2023/05/07 05:34:29;;;;;;;3.73;3.43;;;15.70;99.90;;;;;;5015505;28;20540;-72
2023/05/07 05:36:55;;;;;;;3.43;3.13;;;15.70;99.90;;;;;;5015361;28;20188;-72
2023/05/07 05:39:21;;;;;;;3.30;3.00;;;15.70;99.90;;;;;;5014376;28;20176;-72
2023/05/07 05:41:46;;;;;;;3.67;3.30;;;15.80;99.90;;;;;;5015384;28;20979;-72
2023/05/07 05:44:12;;;;;;;3.73;3.43;;;15.90;99.90;;;;;;5015211;28;20525;-72
2023/05/07 05:46:38;;;;;;;4.07;3.57;;;16.00;99.90;;;;;;5014910;28;20195;-72
2023/05/07 05:49:03;;;;;;;3.67;3.37;;;16.10;99.90;;;;;;5029839;28;20179;-72
2023/05/07 05:51:29;;;;;;;3.13;2.87;;;16.20;99.90;;;;;;5014895;28;20214;-72
2023/05/07 05:53:54;;;;;;;3.17;2.87;;;16.30;99.90;;;;;;5014757;28;20172;-71
2023/05/07 05:56:21;;;;;;;2.67;2.47;;;16.40;99.90;;;;;;5014868;28;20673;-71
2023/05/07 05:58:46;;;;;;;3.90;3.40;;;16.60;99.90;;;;;;5013414;28;20172;-69
2023/05/07 06:01:12;;;;;;;3.67;2.90;;;16.70;99.90;;;;;;5014851;28;20403;-69
2023/05/07 06:03:37;;;;;;;4.00;3.20;;;16.90;99.90;;;;;;5014944;28;20630;-68
2023/05/07 06:06:03;;;;;;;3.43;3.13;;;17.10;99.90;;;;;;5014799;28;20724;-67
2023/05/07 06:08:31;;;;;;;2.83;2.43;;;17.10;99.90;;;;;;5029594;28;20176;-68
2023/05/07 06:10:58;;;;;;;3.23;2.70;;;17.30;99.90;;;;;;5014662;28;20507;-68
2023/05/07 06:13:23;;;;;;;3.53;2.53;;;17.50;99.90;;;;;;5015021;28;20426;-67
2023/05/07 06:15:49;;;;;;;4.30;2.50;;;17.70;99.90;;;;;;5014515;28;20513;-68
2023/05/07 06:18:15;;;;;;;2.20;2.10;;;17.90;99.90;;;;;;5014539;28;20258;-66
2023/05/07 06:20:40;;;;;;;3.40;2.47;;;18.10;99.90;;;;;;5014480;28;20169;-68
2023/05/07 06:23:06;;;;;;;2.70;2.50;;;18.40;99.90;;;;;;5014664;28;20164;-66
2023/05/07 06:25:31;;;;;;;2.70;2.50;;;18.70;99.90;;;;;;5013999;28;20232;-66
2023/05/07 06:27:57;;;;;;;3.13;2.67;;;18.90;99.90;;;;;;5013993;28;20168;-66
2023/05/07 06:30:22;;;;;;;3.10;2.47;;;19.20;99.90;;;;;;5014532;28;20164;-66
2023/05/07 06:32:48;;;;;;;3.00;2.70;;;19.30;99.90;;;;;;5014531;28;20197;-66
2023/05/07 06:35:13;;;;;;;5.30;3.10;;;19.50;99.90;;;;;;5014303;28;20561;-66
2023/05/07 06:37:39;;;;;;;3.00;2.57;;;19.50;99.90;;;;;;5014281;28;20285;-66
2023/05/07 06:40:06;;;;;;;3.63;2.23;;;19.70;99.90;;;;;;5013821;28;20168;-66
2023/05/07 06:42:32;;;;;;;2.57;2.37;;;20.20;99.90;;;;;;5014257;28;20168;-66
2023/05/07 06:44:58;;;;;;;3.60;2.30;;;20.70;99.90;;;;;;5013864;28;20453;-65
2023/05/07 06:47:23;;;;;;;3.17;2.53;;;20.80;99.90;;;;;;5029878;28;20195;-66
2023/05/07 06:49:49;;;;;;;2.70;2.50;;;21.40;99.90;;;;;;5033747;28;20169;-66
2023/05/07 06:52:14;;;;;;;2.00;1.90;;;22.10;99.90;;;;;;5033746;28;20233;-66
2023/05/07 06:54:40;;;;;;;3.00;2.60;;;22.70;99.90;;;;;;5033354;28;20179;-65
2023/05/07 06:57:05;;;;;;;6.00;2.10;;;23.10;99.90;;;;;;5033364;28;20199;-65
2023/05/07 06:59:31;;;;;;;2.20;2.00;;;23.70;99.90;;;;;;5033576;28;20190;-66
2023/05/07 07:01:56;;;;;;;2.30;2.10;;;24.10;99.90;;;;;;5033251;28;20515;-66
2023/05/07 07:04:23;;;;;;;1.60;1.50;;;24.80;99.90;;;;;;5033221;28;20210;-66
2023/05/07 07:06:49;;;;;;;3.33;2.17;;;25.30;99.90;;;;;;5032933;28;20191;-66
2023/05/07 07:09:15;;;;;;;2.33;2.13;;;25.70;99.90;;;;;;5032955;28;20403;-67
2023/05/07 07:11:40;;;;;;;1.97;1.87;;;26.20;99.90;;;;;;5033022;28;20187;-65
2023/05/07 07:14:06;;;;;;;2.90;1.83;;;26.50;99.00;;;;;;5033102;28;20163;-66
2023/05/07 07:16:31;;;;;;;2.40;1.97;;;26.80;94.40;;;;;;5033202;28;20203;-67
2023/05/07 07:18:57;;;;;;;7.80;2.60;;;27.20;92.60;;;;;;5032838;28;20164;-66
2023/05/07 07:21:22;;;;;;;2.47;1.90;;;27.20;88.00;;;;;;5032988;28;20167;-66
2023/05/07 07:23:48;;;;;;;2.50;2.27;;;27.50;80.30;;;;;;5048295;28;20163;-66
2023/05/07 07:26:13;;;;;;;2.10;2.00;;;27.80;80.50;;;;;;5032788;28;20594;-66
2023/05/07 07:28:43;;;;;;;2.00;1.90;;;28.40;78.20;;;;;;5032707;28;20175;-66
2023/05/07 07:31:09;;;;;;;1.80;1.70;;;29.40;76.70;;;;;;5032882;28;20164;-67
2023/05/07 07:33:34;;;;;;;1.90;1.70;;;30.20;64.80;;;;;;5033016;28;20433;-67
2023/05/07 07:36:00;;;;;;;3.50;2.00;;;30.70;61.90;;;;;;5032715;28;20394;-66
2023/05/07 07:38:25;;;;;;;2.10;1.93;;;30.60;59.20;;;;;;5032222;28;20203;-67
2023/05/07 07:40:51;;;;;;;2.33;1.97;;;30.40;57.40;;;;;;5032823;28;20190;-67
2023/05/07 07:43:16;;;;;;;2.40;2.20;;;30.50;57.40;;;;;;5032241;28;20167;-66
2023/05/07 07:45:42;;;;;;;4.60;1.70;;;30.70;54.50;;;;;;5032415;28;20210;-67
2023/05/07 07:48:07;;;;;;;2.43;1.87;;;30.00;55.30;;;;;;5032406;28;20217;-66
2023/05/07 07:50:33;;;;;;;2.60;2.33;;;29.90;56.60;;;;;;5032587;28;20167;-66
2023/05/07 07:52:58;;;;;;;2.73;1.80;;;30.40;57.10;;;;;;5032607;28;20537;-66
2023/05/07 07:55:24;;;;;;;1.80;1.70;;;31.20;57.90;;;;;;5032552;28;20170;-66
2023/05/07 07:57:50;;;;;;;1.93;1.73;;;31.00;55.00;;;;;;5032232;28;20159;-67
2023/05/07 08:00:16;;;;;;;1.60;1.50;;;31.10;54.60;;;;;;5032391;28;20665;-66
2023/05/07 08:02:41;;;;;;;1.87;1.27;;;30.90;54.60;;;;;;5032586;28;20167;-66
2023/05/07 08:05:07;;;;;;;2.33;2.10;;;31.00;54.90;;;;;;5032259;28;20545;-65
2023/05/07 08:07:33;;;;;;;2.17;1.60;;;30.70;54.40;;;;;;5031994;28;20533;-66
2023/05/07 08:09:58;;;;;;;2.37;2.17;;;30.60;55.20;;;;;;5032275;28;20409;-66
2023/05/07 08:12:24;;;;;;;4.93;2.30;;;30.30;55.00;;;;;;5032023;28;20262;-66
2023/05/07 08:14:50;;;;;;;15.33;11.23;;;29.80;54.50;;;;;;5032094;28;20240;-66
2023/05/07 08:17:16;;;;;;;2.30;2.20;;;29.80;56.30;;;;;;5047127;28;20221;-66
2023/05/07 08:19:42;;;;;;;2.50;1.77;;;29.80;56.50;;;;;;5032160;28;20170;-66
2023/05/07 08:22:08;;;;;;;1.80;1.70;;;29.70;56.40;;;;;;5031477;28;20413;-67
2023/05/07 08:24:34;;;;;;;2.00;1.80;;;29.90;57.10;;;;;;5031815;28;20478;-65
2023/05/07 08:27:00;;;;;;;2.23;1.83;;;30.20;56.80;;;;;;5031663;28;20794;-65
2023/05/07 08:29:25;;;;;;;1.53;1.43;;;30.70;55.00;;;;;;5032029;28;20707;-65
2023/05/07 08:31:51;;;;;;;4.20;2.17;;;31.60;55.50;;;;;;5032418;28;20209;-66
2023/05/07 08:34:16;;;;;;;2.23;2.03;;;32.30;54.50;;;;;;5032315;28;20167;-66
2023/05/07 08:36:42;;;;;;;2.07;1.87;;;32.60;51.70;;;;;;5031932;28;20294;-65
2023/05/07 08:39:07;;;;;;;2.00;1.80;;;32.50;50.60;;;;;;5046866;28;20233;-65
2023/05/07 08:41:34;;;;;;;1.50;1.40;;;33.20;52.00;;;;;;5032071;28;20168;-65
2023/05/07 08:44:03;;;;;;;2.30;2.10;;;34.10;50.20;;;;;;5031807;28;20202;-66
2023/05/07 08:46:32;;;;;;;6.13;1.67;;;34.20;47.00;;;;;;5031506;28;20422;-66
2023/05/07 08:48:58;;;;;;;5.70;3.90;;;34.50;46.90;;;;;;5031708;28;20398;-66
2023/05/07 08:51:23;;;;;;;2.40;1.70;;;35.20;46.90;;;;;;5031810;28;20421;-67
2023/05/07 08:53:49;;;;;;;2.30;2.10;;;36.00;46.20;;;;;;5031902;28;20160;-66
2023/05/07 08:56:15;;;;;;;1.87;1.77;;;36.20;43.00;;;;;;5031686;28;20664;-67
2023/05/07 08:58:42;;;;;;;1.70;1.60;;;36.10;43.50;;;;;;5031172;28;20811;-66
2023/05/07 09:01:12;;;;;;;2.27;1.90;;;36.30;43.40;;;;;;5031614;28;20410;-66
2023/05/07 09:03:38;;;;;;;3.67;2.27;;;35.70;42.10;;;;;;5031714;28;20405;-66
2023/05/07 09:06:04;;;;;;;3.00;1.90;;;35.10;41.40;;;;;;5031504;28;20460;-66
2023/05/07 09:08:32;;;;;;;2.40;2.00;;;34.60;42.40;;;;;;5031596;28;20406;-66
2023/05/07 09:10:57;;;;;;;1.80;1.70;;;35.30;44.50;;;;;;5031939;28;20258;-65
2023/05/07 09:13:23;;;;;;;4.40;2.10;;;36.10;42.50;;;;;;5031925;28;20497;-67
2023/05/07 09:15:48;;;;;;;2.10;1.90;;;36.50;41.10;;;;;;5025573;28;20208;-66
2023/05/07 09:18:14;;;;;;;2.27;2.00;;;36.80;40.60;;;;;;5004465;28;20172;-66
2023/05/07 09:20:40;;;;;;;3.50;2.67;;;38.10;41.60;;;;;;5015985;28;20208;-67
2023/05/07 09:23:09;;;;;;;2.53;2.33;;;38.90;39.20;;;;;;5018945;28;20188;-67
2023/05/07 09:25:36;;;;;;;1.80;1.70;;;38.80;37.50;;;;;;5019612;28;20199;-66
2023/05/07 09:28:03;;;;;;;2.63;2.30;;;39.50;38.20;;;;;;5019015;28;20433;-67
2023/05/07 09:30:30;;;;;;;1.60;1.50;;;40.80;38.50;;;;;;5028073;28;20920;-66
2023/05/07 09:32:58;;;;;;;1.73;1.63;;;41.60;34.50;;;;;;5030880;28;20389;-68
2023/05/07 09:35:27;;;;;;;1.93;1.73;;;42.20;33.60;;;;;;5035203;28;20387;-68
2023/05/07 09:37:53;;;;;;;1.60;1.50;;;43.10;32.60;;;;;;5032017;28;20493;-68
2023/05/07 09:40:23;;;;;;;2.23;1.77;;;44.80;33.20;;;;;;5020959;28;20407;-68
2023/05/07 09:42:49;;;;;;;2.00;1.90;;;45.20;28.90;;;;;;5022798;28;20427;-68
2023/05/07 09:45:28;;;;;;;2.90;2.10;;;45.50;29.00;;;;;;5015155;28;20478;-68
2023/05/07 09:47:55;;;;;;;2.10;1.90;;;46.80;30.20;;;;;;5014950;28;20477;-68
2023/05/07 09:50:27;;;;;;;1.83;1.73;;;48.00;29.20;;;;;;5021002;28;20461;-69
2023/05/07 09:52:55;;;;;;;1.90;1.80;;;49.00;28.50;;;;;;5011700;28;20402;-69
2023/05/07 09:55:21;;;;;;;1.87;1.77;;;49.70;27.20;;;;;;5018481;28;20435;-69
2023/05/07 09:57:50;;;;;;;1.90;1.80;;;50.60;27.30;;;;;;5033336;28;20385;-68
2023/05/07 10:00:21;;;;;;;2.33;2.13;;;50.90;25.10;;;;;;5034532;28;20432;-69
2023/05/07 10:02:51;;;;;;;2.40;2.30;;;50.70;24.70;;;;;;5034775;28;20402;-68
2023/05/07 10:05:16;;;;;;;2.70;2.20;;;50.30;24.70;;;;;;5025391;28;20440;-69
2023/05/07 10:07:43;;;;;;;2.60;2.40;;;51.20;25.70;;;;;;5023509;28;20983;-68
2023/05/07 10:10:10;;;;;;;1.87;1.77;;;51.80;24.50;;;;;;5006558;28;20176;-69
2023/05/07 10:12:38;;;;;;;1.93;1.83;;;51.20;23.70;;;;;;5026052;28;20543;-69
2023/05/07 10:15:07;;;;;;;2.73;2.53;;;50.30;23.50;;;;;;5034406;28;20393;-69
2023/05/07 10:17:39;;;;;;;1.80;1.70;;;49.40;24.30;;;;;;5033911;28;20426;-68
2023/05/07 10:20:05;;;;;;;1.80;1.70;;;48.60;24.90;;;;;;5034353;28;20415;-68
2023/05/07 10:22:46;;;;;;;2.13;1.93;;;47.30;24.60;;;;;;5031570;28;20497;-68
2023/05/07 10:25:28;;;;;;;2.53;2.33;;;47.30;26.40;;;;;;5022069;28;20967;-68
2023/05/07 10:27:56;;;;;;;2.13;1.80;;;47.60;26.20;;;;;;5014143;28;20487;-68
2023/05/07 10:30:43;;;;;;;2.43;1.90;;;47.20;24.60;;;;;;5014350;28;20378;-68
2023/05/07 10:33:11;;;;;;;2.00;1.90;;;46.90;24.60;;;;;;5014353;28;20494;-67
2023/05/07 10:35:42;;;;;;;2.10;1.90;;;46.90;24.80;;;;;;5014182;28;20468;-67
2023/05/07 10:38:09;;;;;;;2.27;1.80;;;47.50;24.90;;;;;;5011251;28;20420;-67
2023/05/07 10:40:35;;;;;;;2.30;2.10;;;47.10;25.50;;;;;;5022190;28;20390;-67
2023/05/07 10:43:04;;;;;;;2.00;1.90;;;45.90;24.60;;;;;;5014113;28;20902;-67
2023/05/07 10:45:30;;;;;;;4.03;2.23;;;43.50;25.60;;;;;;5013166;28;20250;-67
2023/05/07 10:48:16;;;;;;;2.90;2.00;;;42.30;26.30;;;;;;5013709;28;20443;-67
2023/05/07 10:50:43;;;;;;;2.20;1.97;;;40.80;27.10;;;;;;5012653;28;20259;-67
2023/05/07 10:53:18;;;;;;;1.83;1.73;;;39.10;27.60;;;;;;5016160;28;20948;-67
2023/05/07 10:56:24;;;;;;;2.00;1.90;;;37.50;28.80;;;;;;5025176;28;20429;-67
2023/05/07 10:58:49;;;;;;;2.20;1.97;;;36.20;30.00;;;;;;5015244;28;20450;-66
2023/05/07 11:01:35;;;;;;;2.13;1.20;;;35.40;31.90;;;;;;5033514;28;20464;-67
2023/05/07 11:04:14;;;;;;;1.97;1.70;;;35.00;33.30;;;;;;5033198;28;20203;-67
2023/05/07 11:06:40;;;;;;;1.70;1.60;;;34.50;33.70;;;;;;5014148;28;20450;-66
2023/05/07 11:09:06;;;;;;;2.57;1.80;;;34.00;34.20;;;;;;5023144;28;20414;-67
2023/05/07 11:11:47;;;;;;;1.70;1.40;;;33.30;35.00;;;;;;5022521;28;20487;-67
2023/05/07 11:14:14;;;;;;;1.97;1.70;;;32.80;36.00;;;;;;5013340;28;20175;-66
2023/05/07 11:16:43;;;;;;;2.70;2.50;;;32.30;37.00;;;;;;5021348;28;20455;-67
2023/05/07 11:19:08;;;;;;;2.47;1.80;;;31.90;37.90;;;;;;5013216;28;20438;-66
2023/05/07 11:21:38;;;;;;;2.53;1.90;;;31.10;37.90;;;;;;5013372;28;20431;-66
2023/05/07 11:24:05;;;;;;;2.03;1.70;;;30.50;38.00;;;;;;5013220;28;20575;-66
2023/05/07 11:26:47;;;;;;;2.33;2.13;;;30.10;38.80;;;;;;5013142;28;20427;-66
2023/05/07 11:29:17;;;;;;;2.37;2.17;;;30.00;39.80;;;;;;5015512;28;20966;-66
2023/05/07 11:31:43;;;;;;;2.43;1.67;;;29.90;40.60;;;;;;5021782;28;20479;-66
2023/05/07 11:34:09;;;;;;;2.90;1.67;;;29.90;41.40;;;;;;5026667;28;20399;-67
2023/05/07 11:36:40;;;;;;;1.37;1.27;;;29.90;42.10;;;;;;5032654;28;20441;-66
2023/05/07 11:39:22;;;;;;;1.53;1.40;;;29.80;42.00;;;;;;5032539;28;20402;-66
2023/05/07 11:41:48;;;;;;;5.53;1.97;;;29.70;41.70;;;;;;5032743;28;20850;-66
2023/05/07 11:44:13;;;;;;;3.73;1.70;;;29.10;40.70;;;;;;5020516;28;20505;-66
2023/05/07 11:46:43;;;;;;;1.67;1.30;;;28.60;41.00;;;;;;5011298;28;20214;-66
2023/05/07 11:49:09;;;;;;;1.40;1.17;;;28.40;41.90;;;;;;5013669;28;20215;-66
2023/05/07 11:51:35;;;;;;;1.83;1.50;;;28.20;42.70;;;;;;5020988;28;20435;-66
2023/05/07 11:54:03;;;;;;;2.90;2.13;;;28.10;42.50;;;;;;5013045;28;20171;-66
2023/05/07 11:56:28;;;;;;;1.90;1.70;;;28.10;42.90;;;;;;5023488;28;20190;-67
2023/05/07 11:58:54;;;;;;;1.70;1.60;;;28.10;43.00;;;;;;5047205;28;20410;-66
2023/05/07 12:01:19;;;;;;;1.77;1.67;;;28.50;43.70;;;;;;5032415;28;20238;-66
2023/05/07 12:03:45;;;;;;;1.40;1.30;;;28.90;43.30;;;;;;5017282;28;20176;-66
2023/05/07 12:06:12;;;;;;;1.90;1.40;;;29.20;42.30;;;;;;5018305;28;20223;-66
2023/05/07 12:08:39;;;;;;;2.23;1.50;;;29.30;42.20;;;;;;5012199;28;20490;-66
2023/05/07 12:11:09;;;;;;;1.70;1.50;;;29.20;41.50;;;;;;5012575;28;20980;-66
2023/05/07 12:13:35;;;;;;;1.93;1.83;;;29.10;41.40;;;;;;5012551;28;20769;-66
2023/05/07 12:16:03;;;;;;;1.37;1.27;;;29.00;41.10;;;;;;5017470;28;20482;-66
2023/05/07 12:18:29;;;;;;;2.40;1.80;;;28.90;41.30;;;;;;5015558;28;20218;-66
2023/05/07 12:20:55;;;;;;;1.90;1.63;;;28.60;41.30;;;;;;5012300;28;20942;-66
2023/05/07 12:23:21;;;;;;;2.03;1.90;;;28.70;41.50;;;;;;5012315;28;20412;-66
2023/05/07 12:25:47;;;;;;;4.10;3.20;;;28.60;41.30;;;;;;5012214;28;20599;-66
2023/05/07 12:28:17;;;;;;;5.33;3.30;;;28.50;41.70;;;;;;5012053;28;20403;-66
2023/05/07 12:30:47;;;;;;;2.07;1.87;;;28.60;42.30;;;;;;5012195;28;21024;-66
2023/05/07 12:33:34;;;;;;;2.53;1.53;;;28.60;42.50;;;;;;5012310;28;20778;-66
2023/05/07 12:36:03;;;;;;;2.80;1.90;;;28.50;42.30;;;;;;5011765;28;21004;-66
2023/05/07 12:38:40;;;;;;;1.67;1.30;;;28.10;42.50;;;;;;5011850;28;20406;-66
2023/05/07 12:41:07;;;;;;;1.67;1.57;;;28.00;43.10;;;;;;5012218;28;20494;-67
2023/05/07 12:43:33;;;;;;;4.77;1.73;;;27.70;43.00;;;;;;5012161;28;20418;-68